Time;durP1;ratioP1;P1;durP2;ratioP2;P2;SDS_P1;SDS_P2;PMS_P1;PMS_P2;Temp;Humidity;BMP_temperature;BMP_pressure;BME280_temperature;BME280_humidity;BME280_pressure;Samples;Min_cycle;Max_cycle;Signal;HPM_P1;HPM_P2
2022/08/24 00:01:12;;;;;;;4.28;2.83;;;17.20;99.80;;;;;;6130835;23;20017;-82
2022/08/24 00:03:39;;;;;;;9.32;2.90;;;17.20;99.90;;;;;;6129767;23;20023;-83
2022/08/24 00:06:08;;;;;;;7.22;3.00;;;17.20;99.90;;;;;;6130748;23;20010;-83
2022/08/24 00:08:35;;;;;;;6.53;3.20;;;17.10;99.90;;;;;;6154890;23;20009;-82
2022/08/24 00:11:00;;;;;;;4.88;2.80;;;17.10;99.90;;;;;;6130276;23;20009;-82
2022/08/24 00:13:26;;;;;;;4.72;3.15;;;17.10;99.90;;;;;;6154383;23;20021;-82
2022/08/24 00:15:53;;;;;;;7.25;3.13;;;17.10;99.90;;;;;;6130431;23;20089;-83
2022/08/24 00:18:20;;;;;;;3.92;2.70;;;17.10;99.90;;;;;;6155262;23;20017;-82
2022/08/24 00:20:47;;;;;;;5.55;2.97;;;17.10;99.90;;;;;;6130823;23;20354;-82
2022/08/24 00:23:31;;;;;;;3.70;2.90;;;17.10;99.90;;;;;;6130299;23;20017;-82
2022/08/24 00:25:57;;;;;;;8.25;3.28;;;17.00;99.90;;;;;;6130602;23;20425;-83
2022/08/24 00:28:22;;;;;;;7.53;3.03;;;17.00;99.90;;;;;;6156239;23;20017;-83
2022/08/24 00:30:49;;;;;;;6.00;2.80;;;17.00;99.90;;;;;;6129766;23;20009;-83
2022/08/24 00:33:15;;;;;;;5.28;3.08;;;17.00;99.90;;;;;;6129929;23;20005;-82
2022/08/24 00:35:41;;;;;;;5.43;3.17;;;17.00;99.90;;;;;;6129964;23;20006;-83
2022/08/24 00:38:07;;;;;;;4.90;2.88;;;16.90;99.90;;;;;;6154681;23;20007;-82
2022/08/24 00:40:38;;;;;;;6.30;2.97;;;16.80;99.90;;;;;;6154214;23;20041;-83
2022/08/24 00:43:06;;;;;;;4.90;2.72;;;16.70;99.90;;;;;;6154379;23;20064;-83
2022/08/24 00:45:41;;;;;;;4.97;2.65;;;16.60;99.90;;;;;;6130222;23;20017;-83
2022/08/24 00:48:19;;;;;;;5.57;2.45;;;16.50;99.90;;;;;;6130045;23;20024;-83
2022/08/24 00:50:58;;;;;;;5.55;2.63;;;16.60;99.90;;;;;;6156024;23;20088;-82
2022/08/24 00:53:38;;;;;;;8.50;2.58;;;16.70;99.90;;;;;;6129257;23;20013;-83
2022/08/24 00:56:08;;;;;;;7.65;2.45;;;16.80;99.90;;;;;;6130021;23;20430;-82
2022/08/24 00:59:13;;;;;;;4.45;2.47;;;16.80;99.90;;;;;;6130202;23;20010;-83
2022/08/24 01:01:40;;;;;;;3.67;2.40;;;16.80;99.90;;;;;;6070845;23;20017;-83
2022/08/24 01:04:09;;;;;;;3.60;2.67;;;16.70;99.90;;;;;;6120012;23;20036;-81
2022/08/24 01:06:35;;;;;;;9.02;2.60;;;16.70;99.90;;;;;;6154804;23;20092;-83
2022/08/24 01:09:01;;;;;;;5.45;2.47;;;16.70;99.90;;;;;;6130195;23;20014;-83
2022/08/24 01:11:29;;;;;;;5.00;2.38;;;16.90;99.90;;;;;;6129830;23;20019;-82
2022/08/24 01:13:55;;;;;;;6.57;2.58;;;16.90;99.90;;;;;;6155976;23;20001;-82
2022/08/24 01:19:21;;;;;;;8.20;2.50;;;16.90;99.90;;;;;;6154532;23;20016;-82
2022/08/24 01:21:58;;;;;;;11.38;2.42;;;17.00;99.90;;;;;;6129733;23;20020;-83
2022/08/24 01:24:23;;;;;;;5.43;2.63;;;16.90;99.90;;;;;;6129744;23;20017;-83
2022/08/24 01:26:50;;;;;;;7.68;2.47;;;16.90;99.90;;;;;;6130147;23;20072;-83
2022/08/24 01:29:19;;;;;;;5.38;2.45;;;16.90;99.90;;;;;;6155019;23;20005;-82
2022/08/24 01:31:45;;;;;;;3.92;2.30;;;16.90;99.90;;;;;;6130209;23;20060;-83
2022/08/24 01:34:12;;;;;;;5.35;2.35;;;16.80;99.90;;;;;;6130050;23;20041;-82
2022/08/24 01:36:50;;;;;;;5.28;2.60;;;16.90;99.90;;;;;;6129819;23;20020;-83
2022/08/24 01:39:21;;;;;;;4.18;2.38;;;16.90;99.90;;;;;;6130165;23;20002;-83
2022/08/24 01:41:48;;;;;;;7.00;2.65;;;16.90;99.90;;;;;;6129362;23;20021;-82
2022/08/24 01:44:14;;;;;;;2.83;2.35;;;16.90;99.90;;;;;;6154204;23;20016;-82
2022/08/24 01:46:45;;;;;;;3.08;2.33;;;16.90;99.90;;;;;;6154249;23;20685;-82
2022/08/24 01:49:12;;;;;;;2.90;2.40;;;16.90;99.90;;;;;;6129342;23;20010;-82
2022/08/24 01:51:38;;;;;;;9.27;3.65;;;16.90;99.90;;;;;;6129877;23;20017;-82
2022/08/24 01:54:05;;;;;;;3.80;2.60;;;16.80;99.90;;;;;;6129784;23;20342;-82
2022/08/24 01:56:31;;;;;;;7.57;2.30;;;16.80;99.90;;;;;;6129367;23;20012;-82
2022/08/24 01:58:57;;;;;;;2.72;2.47;;;16.80;99.90;;;;;;6129393;23;20012;-82
2022/08/24 02:01:27;;;;;;;8.98;2.63;;;16.80;99.90;;;;;;6129316;23;20017;-83
2022/08/24 02:03:53;;;;;;;3.42;2.33;;;16.80;99.90;;;;;;6153707;23;20005;-83
2022/08/24 02:06:20;;;;;;;8.23;2.45;;;16.70;99.90;;;;;;6129659;23;20023;-83
2022/08/24 02:08:46;;;;;;;7.53;2.65;;;16.70;99.90;;;;;;6129346;23;20104;-83
2022/08/24 02:11:14;;;;;;;3.58;2.17;;;16.60;99.90;;;;;;6153642;23;19998;-83
2022/08/24 02:13:41;;;;;;;8.75;2.40;;;16.60;99.90;;;;;;6128730;23;20426;-83
2022/08/24 02:16:07;;;;;;;4.28;2.60;;;16.60;99.90;;;;;;6154134;23;20012;-83
2022/08/24 02:18:35;;;;;;;5.10;2.78;;;16.60;99.90;;;;;;6129341;23;20092;-83
2022/08/24 02:21:02;;;;;;;6.57;2.10;;;16.50;99.90;;;;;;6128874;23;20091;-82
2022/08/24 02:23:28;;;;;;;3.78;1.90;;;16.50;99.90;;;;;;6128939;23;20025;-83
2022/08/24 02:25:55;;;;;;;6.25;2.55;;;16.40;99.90;;;;;;6129470;23;20020;-82
2022/08/24 02:28:21;;;;;;;6.57;2.15;;;16.40;99.90;;;;;;6153929;23;20465;-82
2022/08/24 02:30:48;;;;;;;3.65;2.38;;;16.40;99.90;;;;;;6128908;23;20009;-83
2022/08/24 02:33:14;;;;;;;5.10;2.50;;;16.30;99.90;;;;;;6129328;23;20098;-83
2022/08/24 02:35:41;;;;;;;2.35;1.90;;;16.30;99.90;;;;;;6129589;23;20014;-82
2022/08/24 02:38:08;;;;;;;7.63;2.03;;;16.30;99.90;;;;;;6129586;23;20006;-81
2022/08/24 02:40:36;;;;;;;7.85;2.50;;;16.30;99.90;;;;;;6129920;23;20017;-82
2022/08/24 02:43:03;;;;;;;3.20;2.08;;;16.30;99.90;;;;;;6128915;23;20087;-83
2022/08/24 02:45:30;;;;;;;2.95;2.15;;;16.30;99.90;;;;;;6153844;23;20128;-82
2022/08/24 02:47:57;;;;;;;5.43;2.40;;;16.30;99.90;;;;;;6129183;23;20405;-82
2022/08/24 02:50:25;;;;;;;5.03;2.40;;;16.30;99.90;;;;;;6129319;23;20085;-82
2022/08/24 02:52:51;;;;;;;2.95;2.00;;;16.30;99.90;;;;;;6128840;23;20082;-83
2022/08/24 02:55:18;;;;;;;3.03;2.10;;;16.30;99.90;;;;;;6152887;23;20324;-83
2022/08/24 02:57:44;;;;;;;4.63;2.13;;;16.30;99.90;;;;;;6129412;23;20010;-83
2022/08/24 03:00:13;;;;;;;3.90;2.30;;;16.40;99.90;;;;;;6129507;23;20009;-82
2022/08/24 03:02:49;;;;;;;4.13;2.38;;;16.40;99.90;;;;;;6131029;23;20002;-83
2022/08/24 03:05:16;;;;;;;3.90;2.35;;;16.50;99.90;;;;;;6128987;23;20029;-83
2022/08/24 03:07:42;;;;;;;2.58;2.25;;;16.50;99.90;;;;;;6153550;23;20009;-83
2022/08/24 03:10:08;;;;;;;5.40;2.20;;;16.50;99.90;;;;;;6128871;23;20009;-83
2022/08/24 03:12:34;;;;;;;6.68;2.75;;;16.50;99.90;;;;;;6128879;23;20006;-83
2022/08/24 03:15:01;;;;;;;3.80;2.17;;;16.40;99.90;;;;;;6153304;23;20319;-83
2022/08/24 03:17:30;;;;;;;8.77;2.75;;;16.30;99.90;;;;;;6128462;23;20009;-83
2022/08/24 03:19:56;;;;;;;8.05;2.00;;;16.20;99.90;;;;;;6129349;23;20009;-83
2022/08/24 03:22:22;;;;;;;3.10;2.05;;;16.20;99.90;;;;;;6153849;23;20006;-82
2022/08/24 03:24:48;;;;;;;6.65;1.92;;;16.10;99.90;;;;;;6129126;23;20013;-83
2022/08/24 03:27:14;;;;;;;4.45;2.45;;;16.00;99.90;;;;;;6128777;23;20009;-83
2022/08/24 03:29:40;;;;;;;3.25;2.20;;;15.90;99.90;;;;;;6153644;23;20381;-82
2022/08/24 03:32:17;;;;;;;2.58;1.83;;;15.90;99.90;;;;;;6154014;23;20420;-83
2022/08/24 03:34:43;;;;;;;4.18;2.10;;;15.80;99.90;;;;;;6153447;23;20010;-83
2022/08/24 03:37:10;;;;;;;4.57;2.13;;;15.70;99.90;;;;;;6128435;23;20018;-83
2022/08/24 03:39:36;;;;;;;3.58;2.38;;;15.60;99.90;;;;;;6129221;23;20010;-83
2022/08/24 03:42:02;;;;;;;2.50;2.00;;;15.60;99.90;;;;;;6129318;23;20378;-83
2022/08/24 03:44:27;;;;;;;6.13;2.17;;;15.50;99.90;;;;;;6129180;23;20101;-83
2022/08/24 03:46:54;;;;;;;4.30;2.30;;;15.40;99.90;;;;;;6129135;23;20019;-83
2022/08/24 03:49:22;;;;;;;4.38;2.47;;;15.30;99.90;;;;;;6129725;23;20013;-83
2022/08/24 03:51:49;;;;;;;2.60;2.40;;;15.30;99.90;;;;;;6129040;23;20743;-83
2022/08/24 03:54:18;;;;;;;9.45;2.58;;;15.20;99.90;;;;;;6129874;23;20013;-83
2022/08/24 03:56:45;;;;;;;5.15;2.90;;;15.20;99.90;;;;;;6153844;23;20330;-83
2022/08/24 03:59:13;;;;;;;4.53;2.20;;;15.10;99.90;;;;;;6129304;23;20006;-83
2022/08/24 04:01:42;;;;;;;3.60;2.85;;;14.90;99.90;;;;;;6129217;23;20013;-83
2022/08/24 04:04:08;;;;;;;3.80;2.70;;;14.80;99.90;;;;;;6128373;23;20103;-83
2022/08/24 04:06:36;;;;;;;6.60;2.83;;;14.70;99.90;;;;;;6130896;23;20015;-83
2022/08/24 04:09:03;;;;;;;3.13;2.58;;;14.60;99.90;;;;;;6131006;23;20438;-83
2022/08/24 04:11:33;;;;;;;4.82;2.90;;;14.50;99.90;;;;;;6155741;23;20021;-83
2022/08/24 04:13:59;;;;;;;2.53;2.30;;;14.50;99.90;;;;;;6131032;23;20012;-83
2022/08/24 04:16:27;;;;;;;5.97;3.15;;;14.50;99.90;;;;;;6131120;23;20052;-83
2022/08/24 04:19:13;;;;;;;3.38;2.80;;;14.50;99.90;;;;;;6154641;23;20021;-83
2022/08/24 04:21:40;;;;;;;5.40;2.90;;;14.50;99.90;;;;;;6130637;23;20013;-82
2022/08/24 04:24:08;;;;;;;4.80;2.90;;;14.60;99.90;;;;;;6130758;23;20005;-83
2022/08/24 04:26:36;;;;;;;4.78;3.00;;;14.60;99.90;;;;;;6131088;23;20427;-82
2022/08/24 04:29:03;;;;;;;3.80;2.63;;;14.70;99.90;;;;;;6130482;23;20093;-84
2022/08/24 04:31:30;;;;;;;4.03;2.63;;;14.70;99.90;;;;;;6154944;23;20024;-84
2022/08/24 04:33:56;;;;;;;7.60;2.60;;;14.70;99.90;;;;;;6130256;23;20060;-84
2022/08/24 04:36:22;;;;;;;6.80;3.03;;;14.70;99.90;;;;;;6128874;23;20009;-84
2022/08/24 04:38:49;;;;;;;4.28;2.63;;;14.70;99.90;;;;;;6154833;23;20041;-84
2022/08/24 04:41:35;;;;;;;3.90;2.90;;;14.70;99.90;;;;;;6155250;23;20370;-84
2022/08/24 04:44:02;;;;;;;6.22;2.60;;;14.60;99.90;;;;;;6130391;23;20017;-84
2022/08/24 04:46:28;;;;;;;5.32;3.13;;;14.60;99.90;;;;;;6130626;23;20009;-84
2022/08/24 04:48:55;;;;;;;4.50;2.60;;;14.60;99.90;;;;;;6130701;23;20457;-84
2022/08/24 04:51:21;;;;;;;7.15;2.70;;;14.60;99.90;;;;;;6130569;23;20087;-84
2022/08/24 04:53:50;;;;;;;3.22;2.30;;;14.70;99.90;;;;;;6154833;23;20520;-84
2022/08/24 04:56:20;;;;;;;6.60;2.63;;;14.80;99.90;;;;;;6130632;23;20013;-83
2022/08/24 04:58:51;;;;;;;2.67;2.30;;;14.90;99.90;;;;;;6155530;23;20394;-84
2022/08/24 05:01:20;;;;;;;7.65;2.35;;;15.10;99.90;;;;;;6130574;23;20249;-83
2022/08/24 05:03:49;;;;;;;5.80;2.53;;;15.20;99.90;;;;;;6155086;23;20010;-84
2022/08/24 05:06:20;;;;;;;3.25;2.50;;;15.30;99.90;;;;;;6130782;23;20084;-83
2022/08/24 05:08:46;;;;;;;3.57;2.43;;;15.30;99.90;;;;;;6154355;23;20006;-84
2022/08/24 05:11:14;;;;;;;3.53;2.30;;;15.40;99.90;;;;;;6130381;23;20068;-83
2022/08/24 05:13:40;;;;;;;3.08;2.25;;;15.50;99.90;;;;;;6154415;23;20008;-84
2022/08/24 05:16:09;;;;;;;8.52;2.50;;;15.70;99.90;;;;;;6154719;23;20675;-84
2022/08/24 05:18:36;;;;;;;14.00;3.35;;;15.70;99.90;;;;;;6129813;23;20014;-84
2022/08/24 05:21:06;;;;;;;3.10;2.53;;;15.90;99.90;;;;;;6154475;23;20071;-83
2022/08/24 05:23:34;;;;;;;3.80;2.08;;;16.00;99.90;;;;;;6129986;23;20454;-84
2022/08/24 05:26:26;;;;;;;5.03;2.33;;;16.10;99.90;;;;;;6129537;23;20014;-84
2022/08/24 05:28:55;;;;;;;5.20;2.20;;;16.20;99.90;;;;;;6151476;23;20500;-84
2022/08/24 05:31:24;;;;;;;3.25;2.20;;;16.30;99.90;;;;;;6130086;23;20088;-83
2022/08/24 05:33:51;;;;;;;3.72;2.10;;;16.40;99.90;;;;;;6154357;23;20392;-84
2022/08/24 05:36:23;;;;;;;2.60;2.20;;;16.60;99.90;;;;;;6129463;23;20032;-84
2022/08/24 05:38:50;;;;;;;5.00;2.65;;;16.70;99.90;;;;;;6129728;23;20419;-84
2022/08/24 05:41:17;;;;;;;10.23;2.70;;;16.90;99.90;;;;;;6129758;23;20040;-84
2022/08/24 05:43:45;;;;;;;7.18;2.75;;;17.00;99.90;;;;;;6129409;23;20040;-83
2022/08/24 05:46:11;;;;;;;6.55;2.70;;;17.10;99.90;;;;;;6129841;23;20342;-84
2022/08/24 05:48:38;;;;;;;9.82;2.30;;;17.30;99.90;;;;;;6129702;23;20023;-84
2022/08/24 05:51:07;;;;;;;5.13;2.03;;;17.40;99.90;;;;;;6154441;23;20021;-84
2022/08/24 05:53:40;;;;;;;2.25;2.05;;;17.60;99.90;;;;;;6130243;23;20005;-84
2022/08/24 05:56:11;;;;;;;2.90;2.25;;;17.80;99.90;;;;;;6129703;23;20006;-84
2022/08/24 05:58:38;;;;;;;3.60;2.30;;;18.10;99.90;;;;;;6154737;23;20006;-84
2022/08/24 06:01:25;;;;;;;3.70;2.42;;;18.30;99.90;;;;;;6130466;23;20345;-84
2022/08/24 06:03:54;;;;;;;3.17;2.33;;;18.60;99.90;;;;;;6129986;23;20013;-84
2022/08/24 06:06:21;;;;;;;6.85;2.40;;;18.90;99.90;;;;;;6154632;23;20455;-84
2022/08/24 06:09:18;;;;;;;3.38;2.30;;;19.10;99.90;;;;;;6129915;23;20016;-84
2022/08/24 06:11:46;;;;;;;9.30;2.38;;;19.30;99.90;;;;;;6154070;23;20005;-84
2022/08/24 06:14:16;;;;;;;1.88;1.63;;;19.60;99.90;;;;;;6129526;23;20005;-84
2022/08/24 06:17:25;;;;;;;3.22;2.20;;;19.80;99.90;;;;;;6153968;23;20394;-84
2022/08/24 06:19:51;;;;;;;2.85;2.10;;;20.00;99.90;;;;;;6129792;23;20451;-84
2022/08/24 06:22:16;;;;;;;2.15;1.90;;;20.20;99.90;;;;;;6154437;23;20014;-84
2022/08/24 06:27:27;;;;;;;2.42;1.90;;;20.60;99.90;;;;;;6154229;23;20335;-84
2022/08/24 06:29:56;;;;;;;3.20;1.73;;;20.80;99.90;;;;;;6129685;23;20109;-84
2022/08/24 06:32:42;;;;;;;1.73;1.63;;;21.00;99.90;;;;;;6134031;23;20016;-84
2022/08/24 06:35:11;;;;;;;3.53;2.05;;;21.10;99.90;;;;;;6154181;23;20010;-84
2022/08/24 06:37:37;;;;;;;2.53;1.67;;;21.30;99.90;;;;;;6129606;23;20032;-84
2022/08/24 06:40:04;;;;;;;2.92;2.08;;;21.50;99.90;;;;;;6129992;23;20006;-85
2022/08/24 06:42:33;;;;;;;3.33;1.85;;;21.60;99.90;;;;;;6130333;23;20383;-84
2022/08/24 06:44:59;;;;;;;2.90;1.88;;;21.80;99.90;;;;;;6129317;23;20013;-84
2022/08/24 06:47:25;;;;;;;2.75;1.50;;;21.90;99.90;;;;;;6129239;23;20033;-85
2022/08/24 06:49:58;;;;;;;1.35;1.25;;;22.10;99.90;;;;;;6129924;23;20002;-85
2022/08/24 06:52:26;;;;;;;2.53;1.58;;;22.30;99.90;;;;;;6129914;23;20048;-85
2022/08/24 06:54:53;;;;;;;2.25;1.45;;;22.40;99.90;;;;;;6129029;23;20010;-84
2022/08/24 06:57:18;;;;;;;1.88;1.60;;;22.70;99.90;;;;;;6128599;23;20009;-85
2022/08/24 06:59:45;;;;;;;6.15;1.83;;;22.80;99.20;;;;;;6153556;23;20012;-84
2022/08/24 07:02:14;;;;;;;2.67;1.60;;;22.90;98.80;;;;;;6153713;23;20347;-84
2022/08/24 07:04:41;;;;;;;1.95;1.75;;;23.10;98.10;;;;;;6129004;23;20017;-85
2022/08/24 07:07:25;;;;;;;2.95;2.15;;;23.30;96.80;;;;;;6154400;23;20020;-84
2022/08/24 07:09:52;;;;;;;2.20;1.45;;;23.40;95.80;;;;;;6129469;23;20033;-84
2022/08/24 07:12:18;;;;;;;5.38;1.75;;;23.50;96.10;;;;;;6129869;23;20013;-84
2022/08/24 07:14:44;;;;;;;2.53;1.58;;;23.70;96.10;;;;;;6153591;23;20029;-84
2022/08/24 07:17:10;;;;;;;2.88;1.30;;;23.80;95.60;;;;;;6153616;23;20037;-85
2022/08/24 07:19:39;;;;;;;1.75;1.50;;;23.80;95.20;;;;;;6153906;23;20013;-85
2022/08/24 07:22:07;;;;;;;4.07;1.90;;;23.80;95.40;;;;;;6129917;23;20044;-84
2022/08/24 07:24:32;;;;;;;2.25;1.65;;;23.90;95.40;;;;;;6128759;23;20346;-84
2022/08/24 07:26:59;;;;;;;2.20;1.80;;;23.90;95.30;;;;;;6129538;23;20013;-85
2022/08/24 07:29:25;;;;;;;3.08;1.63;;;23.90;95.10;;;;;;6129505;23;20006;-84
2022/08/24 07:31:51;;;;;;;5.00;2.22;;;24.00;96.00;;;;;;6153662;23;20006;-84
2022/08/24 07:34:37;;;;;;;5.50;1.60;;;24.10;95.70;;;;;;6153347;23;20029;-84
2022/08/24 07:37:06;;;;;;;4.15;2.20;;;24.10;96.10;;;;;;6129406;23;20056;-84
2022/08/24 07:39:34;;;;;;;11.10;2.20;;;24.10;96.00;;;;;;6129574;23;20089;-84
2022/08/24 07:42:00;;;;;;;5.20;2.63;;;24.10;96.20;;;;;;6155444;23;20010;-85
2022/08/24 07:44:25;;;;;;;2.80;2.08;;;24.10;95.90;;;;;;6130606;23;20099;-84
2022/08/24 07:46:51;;;;;;;4.85;2.17;;;24.20;96.90;;;;;;6130419;23;20009;-85
2022/08/24 07:49:17;;;;;;;4.22;2.33;;;24.30;96.90;;;;;;6130836;23;20223;-84
2022/08/24 07:51:43;;;;;;;4.97;2.05;;;24.40;96.50;;;;;;6155012;23;20017;-85
2022/08/24 07:54:09;;;;;;;2.50;2.00;;;24.30;96.10;;;;;;6130615;23;20052;-84
2022/08/24 07:56:41;;;;;;;4.32;2.40;;;24.30;97.30;;;;;;6131930;23;20633;-84
2022/08/24 07:59:08;;;;;;;2.47;2.03;;;24.40;97.10;;;;;;6154761;23;20020;-84
2022/08/24 08:01:34;;;;;;;4.28;2.20;;;24.50;96.50;;;;;;6130455;23;20010;-84
2022/08/24 08:04:00;;;;;;;6.15;2.35;;;24.50;97.20;;;;;;6129844;23;20014;-85
2022/08/24 08:06:26;;;;;;;4.78;2.03;;;24.60;97.60;;;;;;6130242;23;20009;-84
2022/08/24 08:08:57;;;;;;;3.38;2.30;;;24.40;98.00;;;;;;6131601;23;20095;-84
2022/08/24 08:11:23;;;;;;;5.15;2.30;;;24.20;98.60;;;;;;6130488;23;20009;-84
2022/08/24 08:13:49;;;;;;;3.85;2.28;;;24.10;98.80;;;;;;6131125;23;20089;-84
2022/08/24 08:16:15;;;;;;;6.55;2.88;;;24.10;99.40;;;;;;6130957;23;20037;-85
2022/08/24 08:18:42;;;;;;;3.70;2.10;;;24.30;99.80;;;;;;6155337;23;20009;-84
2022/08/24 08:24:13;;;;;;;6.97;2.33;;;24.60;98.80;;;;;;6131563;23;20009;-85
2022/08/24 08:24:13;;;;;;;4.22;1.90;;;24.80;96.60;;;;;;6155033;23;20323;-84
2022/08/24 08:26:40;;;;;;;;;;;25.00;98.10;;;;;;6156232;23;20088;-84
2022/08/24 08:29:12;;;;;;;6.47;2.80;;;25.10;99.30;;;;;;6131993;23;19955;-84
2022/08/24 08:31:40;;;;;;;4.40;2.42;;;24.90;99.60;;;;;;6130092;23;20041;-84
2022/08/24 08:34:07;;;;;;;6.15;2.72;;;25.00;99.90;;;;;;6130319;23;20010;-84
2022/08/24 08:36:38;;;;;;;6.20;2.83;;;25.10;99.90;;;;;;6130825;23;20010;-84
2022/08/24 08:39:07;;;;;;;4.00;2.60;;;25.10;99.90;;;;;;6155115;23;20005;-84
2022/08/24 08:42:13;;;;;;;2.83;2.53;;;25.00;99.90;;;;;;6130809;23;20085;-84
2022/08/24 08:45:01;;;;;;;3.88;2.50;;;24.80;99.90;;;;;;6126356;23;20017;-84
2022/08/24 08:48:02;;;;;;;4.78;2.15;;;25.00;99.90;;;;;;6141576;23;20013;-85
2022/08/24 08:50:31;;;;;;;2.70;2.05;;;25.00;98.90;;;;;;6131877;23;20010;-84
2022/08/24 08:53:41;;;;;;;5.88;2.40;;;25.00;98.90;;;;;;6155160;23;20014;-84
2022/08/24 08:56:22;;;;;;;7.15;2.58;;;25.10;98.50;;;;;;6130221;23;20014;-84
2022/08/24 08:59:14;;;;;;;5.47;2.50;;;25.20;98.10;;;;;;6130051;23;20429;-84
2022/08/24 09:02:07;;;;;;;4.50;2.50;;;25.60;97.80;;;;;;6131123;23;20028;-84
2022/08/24 09:05:14;;;;;;;6.80;2.30;;;26.20;97.20;;;;;;6132974;23;20446;-85
2022/08/24 09:08:01;;;;;;;3.33;2.33;;;27.80;94.30;;;;;;6155043;23;20016;-85
2022/08/24 09:11:00;;;;;;;3.25;2.20;;;29.40;93.00;;;;;;6130183;23;20092;-85
2022/08/24 09:13:32;;;;;;;4.18;2.15;;;30.80;90.90;;;;;;6129534;23;20013;-85
2022/08/24 09:16:07;;;;;;;3.28;1.63;;;31.70;83.00;;;;;;6130717;23;20010;-85
2022/08/24 09:19:13;;;;;;;7.10;2.10;;;32.10;77.80;;;;;;6130443;23;20009;-85
2022/08/24 09:22:08;;;;;;;3.53;2.22;;;32.30;75.20;;;;;;6154943;23;20009;-85
2022/08/24 09:24:49;;;;;;;5.85;2.05;;;32.60;74.10;;;;;;6130315;23;20093;-85
2022/08/24 09:31:26;;;;;;;6.50;2.88;;;33.20;70.90;;;;;;6156009;23;20048;-85
2022/08/24 09:34:07;;;;;;;6.18;2.42;;;33.20;67.50;;;;;;6154672;23;20010;-85
2022/08/24 09:37:08;;;;;;;5.82;2.25;;;33.30;66.70;;;;;;6130184;23;20329;-85
2022/08/24 09:39:52;;;;;;;4.65;2.20;;;33.60;67.40;;;;;;6138983;23;20006;-85
2022/08/24 09:42:42;;;;;;;10.90;2.00;;;33.20;66.20;;;;;;6130212;23;20009;-85
2022/08/24 09:45:43;;;;;;;4.47;2.10;;;32.90;67.20;;;;;;6154373;23;20080;-85
2022/08/24 09:48:38;;;;;;;4.85;2.47;;;31.80;67.60;;;;;;6130139;23;20016;-85
2022/08/24 09:51:31;;;;;;;4.85;2.05;;;31.60;68.50;;;;;;6129877;23;20013;-84
2022/08/24 09:54:37;;;;;;;4.15;1.80;;;31.40;67.50;;;;;;6154172;23;20091;-85
2022/08/24 09:57:20;;;;;;;3.60;2.30;;;31.00;67.50;;;;;;6129812;23;20006;-85
2022/08/24 10:00:17;;;;;;;8.00;1.85;;;31.00;70.40;;;;;;6129120;23;20021;-85
2022/08/24 10:03:10;;;;;;;2.97;2.17;;;31.00;69.30;;;;;;6129195;23;20010;-85
2022/08/24 10:06:02;;;;;;;3.45;2.00;;;30.90;67.40;;;;;;6129752;23;20013;-84
2022/08/24 10:08:57;;;;;;;6.28;2.22;;;30.30;64.80;;;;;;6130125;23;20016;-84
2022/08/24 10:11:39;;;;;;;2.90;2.00;;;30.30;65.40;;;;;;6153939;23;20013;-85
2022/08/24 10:14:11;;;;;;;6.53;2.13;;;30.30;67.70;;;;;;6153880;23;20004;-84
2022/08/24 10:16:59;;;;;;;7.05;2.50;;;30.00;67.20;;;;;;6154592;23;20056;-85
2022/08/24 10:19:59;;;;;;;9.07;2.00;;;29.90;63.10;;;;;;6129722;23;20009;-85
2022/08/24 10:22:56;;;;;;;6.03;2.40;;;30.10;61.50;;;;;;6129631;23;20006;-84
2022/08/24 10:25:29;;;;;;;7.53;2.53;;;30.20;60.50;;;;;;6153926;23;20379;-85
2022/08/24 10:28:07;;;;;;;4.25;2.38;;;30.90;60.50;;;;;;6154454;23;20032;-84
2022/08/24 10:31:04;;;;;;;8.35;2.58;;;31.20;60.00;;;;;;6129377;23;20082;-85
2022/08/24 10:33:34;;;;;;;3.97;1.75;;;31.60;59.00;;;;;;6153816;23;20017;-85
2022/08/24 10:36:21;;;;;;;5.90;2.17;;;31.50;59.30;;;;;;6128967;23;20005;-84
2022/08/24 10:42:08;;;;;;;6.25;2.20;;;31.70;58.80;;;;;;6153703;23;20145;-84
2022/08/24 10:44:39;;;;;;;5.38;2.22;;;31.80;58.50;;;;;;6153075;23;20066;-85
2022/08/24 10:47:27;;;;;;;10.75;1.98;;;31.60;59.00;;;;;;6129535;23;20010;-85
2022/08/24 10:50:19;;;;;;;3.25;2.25;;;31.70;56.20;;;;;;6129422;23;20049;-85
2022/08/24 10:52:55;;;;;;;7.75;2.28;;;31.80;58.00;;;;;;6128975;23;20018;-85
2022/08/24 10:55:25;;;;;;;6.80;1.92;;;31.80;57.50;;;;;;6153419;23;20009;-84
2022/08/24 10:58:02;;;;;;;6.50;2.53;;;31.70;57.40;;;;;;6128814;23;20006;-85
2022/08/24 11:00:29;;;;;;;6.05;2.22;;;31.50;59.00;;;;;;6129226;23;20013;-85
2022/08/24 11:03:17;;;;;;;2.65;1.77;;;31.50;57.50;;;;;;6129164;23;20006;-85
2022/08/24 11:05:55;;;;;;;3.42;2.50;;;31.70;57.40;;;;;;6129343;23;20029;-83
2022/08/24 11:08:34;;;;;;;5.32;2.47;;;31.60;56.90;;;;;;6128968;23;20561;-84
2022/08/24 11:11:13;;;;;;;8.07;2.30;;;31.50;58.00;;;;;;6128933;23;20319;-85
2022/08/24 11:13:59;;;;;;;5.38;2.45;;;31.40;58.60;;;;;;6128649;23;20017;-84
2022/08/24 11:16:43;;;;;;;4.88;2.33;;;31.30;58.90;;;;;;6155034;23;20009;-85
2022/08/24 11:19:28;;;;;;;8.63;2.40;;;31.50;58.50;;;;;;6131564;23;20020;-85
2022/08/24 11:22:00;;;;;;;5.65;2.10;;;31.70;57.80;;;;;;6131445;23;20009;-85
2022/08/24 11:24:44;;;;;;;6.53;2.83;;;32.10;57.10;;;;;;6155803;23;20013;-85
2022/08/24 11:27:40;;;;;;;6.45;2.22;;;32.70;57.20;;;;;;6131521;23;20014;-84
2022/08/24 11:30:24;;;;;;;3.53;2.20;;;32.80;56.00;;;;;;6156192;23;20040;-86
2022/08/24 11:33:02;;;;;;;5.05;2.58;;;32.80;56.40;;;;;;6156119;23;20058;-85
2022/08/24 11:35:48;;;;;;;3.53;2.20;;;32.50;55.40;;;;;;6155843;23;20009;-85
2022/08/24 11:38:16;;;;;;;6.07;2.28;;;32.20;55.10;;;;;;6156729;23;20385;-85
2022/08/24 11:41:21;;;;;;;9.88;2.50;;;32.50;55.70;;;;;;6131614;23;20013;-85
2022/08/24 11:44:20;;;;;;;4.55;2.50;;;32.70;54.70;;;;;;6130883;23;20422;-84
2022/08/24 11:46:57;;;;;;;4.13;2.58;;;32.00;55.20;;;;;;6112906;23;20016;-84
2022/08/24 11:49:51;;;;;;;7.93;2.60;;;32.30;55.70;;;;;;6131192;23;20315;-84
2022/08/24 11:52:42;;;;;;;8.07;2.67;;;32.60;54.70;;;;;;6151477;23;20018;-84
2022/08/24 11:55:30;;;;;;;12.38;2.60;;;32.80;55.40;;;;;;6130840;23;20448;-85
2022/08/24 11:58:37;;;;;;;4.05;3.10;;;31.90;55.60;;;;;;6155428;23;20009;-84
2022/08/24 12:01:22;;;;;;;6.75;2.70;;;30.90;57.10;;;;;;6047182;23;20010;-84
2022/08/24 12:04:15;;;;;;;3.75;2.55;;;30.80;57.30;;;;;;6071294;23;20006;-84
2022/08/24 12:06:56;;;;;;;14.27;2.42;;;31.00;58.20;;;;;;6138168;23;20009;-85
2022/08/24 12:09:29;;;;;;;;;;;31.30;57.30;;;;;;6156499;23;20346;-85
2022/08/24 12:12:32;;;;;;;10.40;2.72;;;31.50;57.30;;;;;;6157692;23;20453;-85
2022/08/24 12:15:09;;;;;;;8.07;2.50;;;31.60;56.60;;;;;;6130637;23;20382;-85
2022/08/24 12:17:47;;;;;;;9.25;3.42;;;31.60;56.10;;;;;;6155154;23;20044;-85
2022/08/24 12:20:31;;;;;;;9.68;2.50;;;31.60;56.20;;;;;;6155417;23;20005;-85
2022/08/24 12:23:02;;;;;;;4.30;2.85;;;31.60;56.10;;;;;;6155987;23;20084;-86
2022/08/24 12:28:23;;;;;;;5.13;2.30;;;31.40;56.90;;;;;;6155744;23;20005;-85
2022/08/24 12:30:51;;;;;;;3.78;2.38;;;31.40;57.90;;;;;;6130729;23;20017;-85
2022/08/24 12:33:24;;;;;;;8.93;2.90;;;31.30;56.80;;;;;;6155015;23;20566;-84
2022/08/24 12:35:58;;;;;;;4.95;2.30;;;30.60;56.60;;;;;;6130472;23;20346;-84
2022/08/24 12:38:34;;;;;;;5.50;2.65;;;30.60;57.80;;;;;;6131182;23;20041;-84
2022/08/24 12:41:30;;;;;;;6.22;2.70;;;30.50;58.40;;;;;;6130968;23;20096;-85
2022/08/24 12:44:13;;;;;;;7.80;2.40;;;30.90;58.60;;;;;;6128996;23;20048;-85
2022/08/24 12:46:43;;;;;;;8.98;2.20;;;31.10;57.10;;;;;;6156238;23;20093;-84
2022/08/24 12:49:46;;;;;;;7.05;2.60;;;31.10;57.30;;;;;;6154800;23;20394;-85
2022/08/24 12:52:42;;;;;;;7.55;2.70;;;30.90;57.60;;;;;;6130677;23;20019;-89
2022/08/24 12:55:13;;;;;;;3.60;2.22;;;31.10;57.90;;;;;;6130303;23;20465;-84
2022/08/24 12:57:49;;;;;;;3.97;2.38;;;31.00;57.50;;;;;;6154200;23;20052;-84
2022/08/24 13:00:46;;;;;;;3.00;2.30;;;31.00;57.60;;;;;;6129865;23;20382;-84
2022/08/24 13:03:31;;;;;;;4.03;2.10;;;30.80;56.90;;;;;;6129892;23;20100;-85
2022/08/24 13:06:03;;;;;;;4.50;2.50;;;31.20;55.40;;;;;;6154883;23;20001;-85
2022/08/24 13:08:40;;;;;;;5.00;2.50;;;31.40;56.70;;;;;;6155121;23;20005;-85
2022/08/24 13:11:26;;;;;;;9.95;2.80;;;31.10;56.80;;;;;;6130190;23;20350;-85
2022/08/24 13:14:04;;;;;;;7.97;2.25;;;31.20;56.70;;;;;;6154423;23;20002;-85
2022/08/24 13:16:47;;;;;;;5.88;2.40;;;31.70;57.30;;;;;;6130292;23;20002;-83
2022/08/24 13:19:22;;;;;;;6.00;2.50;;;31.80;57.00;;;;;;6130494;23;20088;-83
2022/08/24 13:22:16;;;;;;;4.13;2.55;;;31.50;56.80;;;;;;6154674;23;20080;-83
2022/08/24 13:24:45;;;;;;;7.93;1.95;;;32.30;56.00;;;;;;6128745;23;20018;-83
2022/08/24 13:27:11;;;;;;;4.95;2.65;;;32.30;56.00;;;;;;6129310;23;20018;-83
2022/08/24 13:29:52;;;;;;;6.30;2.10;;;32.20;56.20;;;;;;6128669;23;20025;-83
2022/08/24 13:32:39;;;;;;;;;;;32.50;55.70;;;;;;6153314;23;20045;-83
2022/08/24 13:35:30;;;;;;;3.70;2.00;;;32.80;55.30;;;;;;6154883;23;19909;-83
2022/08/24 13:38:33;;;;;;;9.13;2.53;;;33.00;55.70;;;;;;6153414;23;20009;-83
2022/08/24 13:41:10;;;;;;;4.97;2.45;;;33.00;55.60;;;;;;6129440;23;20009;-82